Soldotna Airport
PASX : rendu visible

Aérodrome :











RETROUVEZ-NOUS SUR...

 
LOGIN :

S'inscrire | Disclaimer

   EN    FR    IT 

 









Légende :    VFR   VFR Marginal   IFR   IFR Intensif   IFR Très Intensif
Visi : 
Plafond : 
>= 8 km
>= 3000ft
5 à 8 km
1000 à 3000 ft
1500m à 5 km
500 à 1000 ft
800 à 1500m
200 à 500 ft
< 800m
< 200 ft
Symboles :   Orages  Brouillard  Fortes neiges  Fortes précipitations  Vent > 20 kt






- Altitude de l'aérodrome : 113 ft
- Code IATA : SXQ


PASX - Soldotna

DERNIER METAR :
  • 250756Z AUTO 00000KT 10SM -RA BKN055 06/03 A2981 RMK AO2 RAB51 SLP103 P0000 T00610028

METARs EXPIRÉS :
  • 250656Z AUTO 00000KT 10SM SCT060 09/02 A2979 RMK AO2 SLP096 T00890017
  • 250556Z AUTO 26008KT 10SM SCT060 BKN070 11/02 A2976 RMK AO2 RAB36E56 SLP088 P0000 60000 T01060017 10117 20100 51016

TAF N/A
FIR PAZA / Amérique du Nord



MET'MAP, la Météo Aéronautique d'un coup d'oeil ! - Copyright ORBIFLY Décembre 2007 - Disclaimer

ORBIFLY MET'MAP TEAM :

Programmation & Développement : Alexandra Zaïnal
Sur une idée originale de : Baudouin d'Aumeries
Assistance à la programmation : Marc-Olivier Méhu
Soutien technique & logistique : Manuel Goepfert

Contact : metmap@orbifly.com




SOURCES & CREDITS :

   NOAA       Earth
Advisory